Terminal Aerodrome Forecast
Issued by NWS Mt. Holly, NJ

Home | Current Version | Previous Version | Text Only | Print | Product List | Glossary On
Versions: 1 2 3 4 5 6 7 8 9 10 11 12 13 14 15 16 17 18 19 20
959
FTUS41 KPHI 251133
TAFRDG
TAF
KRDG 251133Z 2512/2612 18011KT P6SM BKN015
      TEMPO 2512/2514 SCT015 BKN050
     FM251400 17010KT P6SM BKN025
     FM251600 19012G20KT P6SM BKN035
      TEMPO 2519/2521 28018G35KT 2SM +TSRA OVC020CB
     FM252100 29010KT P6SM VCSH OVC050
     FM260000 30012G22KT P6SM SCT040=

USA.gov is the U.S. government's official web portal to all federal, state and local government web resources and services.